Aura, New Jersey
Current Conditions -  °F | °C
As of 2:54 PM on Thursday 18 Dec 2014 (Local Time) from KPHL Reporting Station
Scattered Clouds Scattered Clouds  
Wind Chill: 31°   Ceiling: Unl
Heat Index: 40°   Visibility: 10mi
Dew Point: 23°   Wind: 16mph
Humidity: 51%   Direction: 300°WNW
Pressure: 30.03"   Gusts: 25mph
Location:  39.6996°N, 75.1187°W
Report Text: KPHL 181954Z 30014G22KT 10SM FEW038 SCT043 SCT250 04/M05 A3003 RMK AO2 SLP167 T00441050
Loading
Personal Weather Stations






























Interactive Weather Map New forecast layout! Learn more

10-Day Weather Forecast

Advertisements
Track Severe Weather on mobile